sensor_id;sensor_type;location;lat;lon;timestamp;pressure;altitude;pressure_sealevel;temperature;humidity
48029;BME280;33808;37.368;127.108;2023-02-22T06:59:02;101208.75;;;28.68;nan
48029;BME280;33808;37.368;127.108;2023-02-22T07:01:33;101207.06;;;28.67;nan
48029;BME280;33808;37.368;127.108;2023-02-22T07:04:22;101200.25;;;28.72;nan
48029;BME280;33808;37.368;127.108;2023-02-22T07:07:52;101189.69;;;28.79;nan
48029;BME280;33808;37.368;127.108;2023-02-22T07:11:20;101204.03;;;28.88;nan
48029;BME280;33808;37.368;127.108;2023-02-22T07:14:49;101201.41;;;28.96;nan
48029;BME280;33808;37.368;127.108;2023-02-22T07:18:17;101206.47;;;28.99;nan
48029;BME280;33808;37.368;127.108;2023-02-22T07:21:49;101192.22;;;29.07;nan
48029;BME280;33808;37.368;127.108;2023-02-22T07:25:18;101119.13;;;28.59;nan
48029;BME280;33808;37.368;127.108;2023-02-22T07:28:47;101199.22;;;29.18;nan
48029;BME280;33808;37.368;127.108;2023-02-22T07:32:16;101194.88;;;29.25;nan
48029;BME280;33808;37.368;127.108;2023-02-22T07:35:26;101192.34;;;29.23;nan
48029;BME280;33808;37.368;127.108;2023-02-22T07:38:54;101182.13;;;29.35;nan
48029;BME280;33808;37.368;127.108;2023-02-22T07:42:22;101183.00;;;29.36;nan
48029;BME280;33808;37.368;127.108;2023-02-22T07:45:56;101187.38;;;29.37;nan
48029;BME280;33808;37.368;127.108;2023-02-22T07:49:21;101181.34;;;29.43;nan
48029;BME280;33808;37.368;127.108;2023-02-22T07:52:54;101188.72;;;29.41;nan
48029;BME280;33808;37.368;127.108;2023-02-22T07:56:22;101180.13;;;29.37;nan
48029;BME280;33808;37.368;127.108;2023-02-22T07:59:51;101183.19;;;29.42;nan
48029;BME280;33808;37.368;127.108;2023-02-22T08:03:21;101170.25;;;29.46;nan
48029;BME280;33808;37.368;127.108;2023-02-22T08:06:49;101182.66;;;29.39;nan
48029;BME280;33808;37.368;127.108;2023-02-22T08:10:19;101177.66;;;29.44;nan
48029;BME280;33808;37.368;127.108;2023-02-22T08:13:46;101178.31;;;29.38;nan
48029;BME280;33808;37.368;127.108;2023-02-22T08:17:15;101173.75;;;29.38;nan
48029;BME280;33808;37.368;127.108;2023-02-22T08:20:45;101156.72;;;29.29;nan
48029;BME280;33808;37.368;127.108;2023-02-22T08:24:12;101157.06;;;29.35;nan
48029;BME280;33808;37.368;127.108;2023-02-22T08:27:44;101155.41;;;29.34;nan
48029;BME280;33808;37.368;127.108;2023-02-22T08:31:13;101151.31;;;29.29;nan
48029;BME280;33808;37.368;127.108;2023-02-22T08:34:22;101155.31;;;29.17;nan
48029;BME280;33808;37.368;127.108;2023-02-22T08:37:13;101160.38;;;29.20;nan
48029;BME280;33808;37.368;127.108;2023-02-22T08:40:41;101164.06;;;29.19;nan
48029;BME280;33808;37.368;127.108;2023-02-22T08:44:10;101159.47;;;29.11;nan
48029;BME280;33808;37.368;127.108;2023-02-22T08:47:38;101158.31;;;29.14;nan
48029;BME280;33808;37.368;127.108;2023-02-22T08:51:07;101161.44;;;29.09;nan
48029;BME280;33808;37.368;127.108;2023-02-22T08:54:36;101161.94;;;29.05;nan
48029;BME280;33808;37.368;127.108;2023-02-22T08:58:05;101161.25;;;29.03;nan
48029;BME280;33808;37.368;127.108;2023-02-22T12:24:42;101100.69;;;26.91;nan
48029;BME280;33808;37.368;127.108;2023-02-22T12:27:28;101094.88;;;26.96;nan
48029;BME280;33808;37.368;127.108;2023-02-22T12:30:04;101087.38;;;26.99;nan
48029;BME280;33808;37.368;127.108;2023-02-22T12:32:42;101094.44;;;27.00;nan
48029;BME280;33808;37.368;127.108;2023-02-22T12:38:03;101089.91;;;27.01;nan
48029;BME280;33808;37.368;127.108;2023-02-22T12:40:45;101099.94;;;26.99;nan
48029;BME280;33808;37.368;127.108;2023-02-22T12:46:40;101091.22;;;26.97;nan
48029;BME280;33808;37.368;127.108;2023-02-22T12:49:33;101094.03;;;26.95;nan
48029;BME280;33808;37.368;127.108;2023-02-22T12:56:03;101091.53;;;26.84;nan
48029;BME280;33808;37.368;127.108;2023-02-22T12:59:21;100984.09;;;26.01;nan
48029;BME280;33808;37.368;127.108;2023-02-22T13:02:45;101099.31;;;26.77;nan
48029;BME280;33808;37.368;127.108;2023-02-22T13:27:46;101073.66;;;26.65;nan
48029;BME280;33808;37.368;127.108;2023-02-22T13:37:52;101077.59;;;26.80;nan
48029;BME280;33808;37.368;127.108;2023-02-22T13:44:42;101092.28;;;26.76;nan
48029;BME280;33808;37.368;127.108;2023-02-22T13:49:00;101090.28;;;26.69;nan
48029;BME280;33808;37.368;127.108;2023-02-22T13:51:53;101091.44;;;26.66;nan
48029;BME280;33808;37.368;127.108;2023-02-22T13:55:21;101098.50;;;26.67;nan
48029;BME280;33808;37.368;127.108;2023-02-22T13:58:52;101094.97;;;26.57;nan
48029;BME280;33808;37.368;127.108;2023-02-22T14:02:31;101097.91;;;26.54;nan
48029;BME280;33808;37.368;127.108;2023-02-22T14:14:28;101106.97;;;26.53;nan
48029;BME280;33808;37.368;127.108;2023-02-22T14:18:20;101096.09;;;26.64;nan
48029;BME280;33808;37.368;127.108;2023-02-22T14:22:02;101108.66;;;26.64;nan
48029;BME280;33808;37.368;127.108;2023-02-22T16:54:43;101070.31;;;25.85;nan
48029;BME280;33808;37.368;127.108;2023-02-22T16:57:20;100940.06;;;24.96;nan
48029;BME280;33808;37.368;127.108;2023-02-22T16:59:50;101057.63;;;25.87;nan
48029;BME280;33808;37.368;127.108;2023-02-22T17:02:21;101057.34;;;25.90;nan
48029;BME280;33808;37.368;127.108;2023-02-22T17:04:50;101059.06;;;25.91;nan
48029;BME280;33808;37.368;127.108;2023-02-22T17:07:21;101047.25;;;25.94;nan
48029;BME280;33808;37.368;127.108;2023-02-22T17:09:59;101037.63;;;25.91;nan
48029;BME280;33808;37.368;127.108;2023-02-22T17:17:31;101035.97;;;26.00;nan
48029;BME280;33808;37.368;127.108;2023-02-22T17:20:01;101036.81;;;26.00;nan
48029;BME280;33808;37.368;127.108;2023-02-22T17:22:39;101046.81;;;26.08;nan
48029;BME280;33808;37.368;127.108;2023-02-22T17:25:33;101042.00;;;26.02;nan
48029;BME280;33808;37.368;127.108;2023-02-22T17:28:57;101034.81;;;25.93;nan
48029;BME280;33808;37.368;127.108;2023-02-22T17:32:26;101038.19;;;25.95;nan
48029;BME280;33808;37.368;127.108;2023-02-22T17:35:56;101058.50;;;25.97;nan
48029;BME280;33808;37.368;127.108;2023-02-22T17:39:24;101039.63;;;25.99;nan
48029;BME280;33808;37.368;127.108;2023-02-22T17:42:53;101040.88;;;25.95;nan
48029;BME280;33808;37.368;127.108;2023-02-22T17:46:21;101042.72;;;25.94;nan
48029;BME280;33808;37.368;127.108;2023-02-22T17:49:50;101042.19;;;26.00;nan
48029;BME280;33808;37.368;127.108;2023-02-22T17:53:19;101046.09;;;25.96;nan
48029;BME280;33808;37.368;127.108;2023-02-22T17:56:49;101042.00;;;26.02;nan
48029;BME280;33808;37.368;127.108;2023-02-22T18:00:15;101035.69;;;25.93;nan
48029;BME280;33808;37.368;127.108;2023-02-22T18:03:42;101037.50;;;25.93;nan
48029;BME280;33808;37.368;127.108;2023-02-22T18:07:11;101039.91;;;25.96;nan
48029;BME280;33808;37.368;127.108;2023-02-22T18:10:40;101012.84;;;25.60;nan
48029;BME280;33808;37.368;127.108;2023-02-22T18:14:09;101072.84;;;25.87;nan
48029;BME280;33808;37.368;127.108;2023-02-22T18:17:37;101053.84;;;25.90;nan
48029;BME280;33808;37.368;127.108;2023-02-22T18:21:06;101041.06;;;25.93;nan
48029;BME280;33808;37.368;127.108;2023-02-22T18:24:35;101055.28;;;25.94;nan
48029;BME280;33808;37.368;127.108;2023-02-22T18:28:04;101034.81;;;25.83;nan
48029;BME280;33808;37.368;127.108;2023-02-22T18:31:32;100965.78;;;25.38;nan
48029;BME280;33808;37.368;127.108;2023-02-22T18:35:01;101034.41;;;25.88;nan
48029;BME280;33808;37.368;127.108;2023-02-22T18:38:30;100910.97;;;25.22;nan
48029;BME280;33808;37.368;127.108;2023-02-22T18:41:59;101037.78;;;25.90;nan
48029;BME280;33808;37.368;127.108;2023-02-22T18:48:37;101013.38;;;25.83;nan
48029;BME280;33808;37.368;127.108;2023-02-22T18:52:04;101024.78;;;25.85;nan
